Terminal Aerodrome Forecast
Issued by NWS Burlington, VT

Home | Current Version | Previous Version | Text Only | Print | Product List | Glossary On
Versions: 1 2 3 4 5 6 7 8 9 10 11 12 13 14 15 16 17 18 19 20 21 22 23
800
FTUS41 KBTV 290629 AAA
TAFBTV
TAF AMD
KBTV 290629Z 2906/3006 00000KT P6SM -DZ SCT025 OVC045
      TEMPO 2906/2908 5SM -RA BR BKN006 OVC025
     FM290800 VRB03KT 3SM -DZ BR OVC025
     FM291200 35006KT P6SM VCSH OVC020
     FM291700 33011G18KT P6SM OVC035
     FM300000 34007KT P6SM OVC050=

USA.gov is the U.S. government's official web portal to all federal, state and local government web resources and services.